Time;durP1;ratioP1;P1;durP2;ratioP2;P2;SDS_P1;SDS_P2;PMS_P1;PMS_P2;Temp;Humidity;BMP_temperature;BMP_pressure;BME280_temperature;BME280_humidity;BME280_pressure;Samples;Min_cycle;Max_cycle;Signal;HPM_P1;HPM_P2
2022/08/24 00:01:09;;;;;;;4.53;4.30;;;;;;;17.88;93.28;66070.63;5113627;28;20196;-69
2022/08/24 00:03:37;;;;;;;4.50;4.20;;;;;;;17.89;93.96;66076.44;5113569;28;20262;-69
2022/08/24 00:06:07;;;;;;;4.50;4.23;;;;;;;17.94;93.91;66078.84;5113520;28;20265;-69
2022/08/24 00:08:33;;;;;;;4.03;3.90;;;;;;;;;;5113558;28;20202;-69
2022/08/24 00:11:00;;;;;;;5.93;4.63;;;;;;;17.95;94.50;66079.97;5113417;28;20223;-69
2022/08/24 00:13:27;;;;;;;8.27;4.53;;;;;;;17.89;94.36;66071.19;5113496;28;20224;-69
2022/08/24 00:15:58;;;;;;;4.63;4.53;;;;;;;17.80;94.90;66064.34;5113432;28;20254;-70
2022/08/24 00:18:25;;;;;;;6.93;4.30;;;;;;;17.74;95.05;66057.66;5113706;28;20185;-69
2022/08/24 00:20:53;;;;;;;5.03;3.73;;;;;;;17.67;95.20;66054.50;5113742;28;20205;-69
2022/08/24 00:23:20;;;;;;;5.77;4.33;;;;;;;17.68;95.29;66050.38;5113674;28;20644;-69
2022/08/24 00:25:46;;;;;;;4.67;4.67;;;;;;;17.71;95.63;66064.78;5113343;28;20273;-70
2022/08/24 00:28:13;;;;;;;4.97;4.70;;;;;;;17.68;95.20;66053.00;5116803;28;20251;-70
2022/08/24 00:30:39;;;;;;;4.23;4.20;;;;;;;;;;5099063;28;20277;-69
2022/08/24 00:33:07;;;;;;;4.63;4.60;;;;;;;17.62;95.66;66044.22;5099066;28;20665;-69
2022/08/24 00:35:33;;;;;;;4.43;4.33;;;;;;;17.60;95.67;66053.06;5116175;28;20206;-69
2022/08/24 00:38:00;;;;;;;5.17;5.07;;;;;;;17.63;95.97;66047.97;5098893;28;20256;-69
2022/08/24 00:40:33;;;;;;;4.90;4.90;;;;;;;17.57;96.43;66036.03;5117146;28;20177;-69
2022/08/24 00:43:03;;;;;;;6.17;5.67;;;;;;;17.53;97.08;66031.56;5118032;28;20525;-69
2022/08/24 00:45:58;;;;;;;5.17;4.93;;;;;;;17.49;97.12;66029.72;5115831;28;20258;-69
2022/08/24 00:48:29;;;;;;;5.00;4.87;;;;;;;17.46;96.99;66026.41;5115059;28;20212;-69
2022/08/24 00:50:59;;;;;;;5.60;5.17;;;;;;;17.41;97.14;66031.31;5117354;28;20197;-69
2022/08/24 00:53:32;;;;;;;5.33;5.03;;;;;;;17.33;97.05;66018.25;5098688;28;20185;-69
2022/08/24 00:56:05;;;;;;;5.47;5.30;;;;;;;17.32;97.37;66013.97;5098577;28;20222;-69
2022/08/24 00:58:40;;;;;;;4.40;4.40;;;;;;;17.30;97.37;66009.13;5117471;28;20620;-69
2022/08/24 01:01:08;;;;;;;5.73;5.63;;;;;;;17.31;97.82;66007.59;5117414;28;20173;-69
2022/08/24 01:03:37;;;;;;;4.27;4.07;;;;;;;17.26;98.22;66007.28;5116767;28;20613;-69
2022/08/24 01:06:04;;;;;;;6.30;5.27;;;;;;;17.23;98.35;66004.50;5116689;28;20197;-69
2022/08/24 01:08:30;;;;;;;6.57;5.70;;;;;;;17.21;98.82;66004.31;5116671;28;20242;-69
2022/08/24 01:11:00;;;;;;;6.13;5.63;;;;;;;17.11;99.19;65993.72;5115143;28;20221;-69
2022/08/24 01:13:29;;;;;;;5.60;5.20;;;;;;;17.06;99.84;65988.16;5116566;28;20227;-69
2022/08/24 01:16:00;;;;;;;6.27;5.93;;;;;;;17.03;100.00;65982.19;5116487;28;20186;-69
2022/08/24 01:21:26;;;;;;;6.50;6.00;;;;;;;16.98;100.00;65971.38;5116783;28;20235;-69
2022/08/24 01:23:59;;;;;;;6.50;6.10;;;;;;;16.97;100.00;65978.69;5116713;28;20173;-69
2022/08/24 01:26:38;;;;;;;6.80;6.30;;;;;;;16.92;100.00;65970.47;5098046;28;20270;-68
2022/08/24 01:29:11;;;;;;;9.47;7.10;;;;;;;16.88;100.00;65962.84;5116790;28;20616;-68
2022/08/24 01:31:38;;;;;;;9.50;6.57;;;;;;;16.92;100.00;65967.28;5097914;28;20223;-68
2022/08/24 01:34:05;;;;;;;7.70;7.37;;;;;;;17.05;100.00;65979.16;5116193;28;20667;-68
2022/08/24 01:36:36;;;;;;;7.47;7.00;;;;;;;17.15;100.00;65995.56;5114774;28;20209;-69
2022/08/24 01:39:09;;;;;;;7.83;6.83;;;;;;;17.19;100.00;65996.84;5115126;28;20681;-69
2022/08/24 01:41:35;;;;;;;7.60;7.20;;;;;;;17.11;100.00;65991.09;5097734;28;20208;-69
2022/08/24 01:44:03;;;;;;;7.60;7.40;;;;;;;17.12;100.00;65989.03;5114687;28;20235;-69
2022/08/24 01:46:30;;;;;;;7.13;6.90;;;;;;;17.13;100.00;65995.94;5097633;28;20266;-69
2022/08/24 01:48:57;;;;;;;7.40;7.10;;;;;;;17.08;100.00;65984.59;5116440;28;20173;-69
2022/08/24 01:51:30;;;;;;;9.93;7.40;;;;;;;17.15;100.00;65995.56;5097453;28;20300;-69
2022/08/24 01:53:59;;;;;;;8.00;6.83;;;;;;;17.08;100.00;65985.16;5097832;28;20189;-69
2022/08/24 01:56:26;;;;;;;6.80;6.53;;;;;;;16.99;100.00;65975.66;5097395;28;20303;-69
2022/08/24 01:58:56;;;;;;;6.70;6.30;;;;;;;16.91;100.00;65964.13;5097358;28;20682;-69
2022/08/24 02:01:22;;;;;;;6.67;6.30;;;;;;;16.91;100.00;65963.56;5097631;28;20193;-69
2022/08/24 02:03:49;;;;;;;6.97;6.40;;;;;;;16.88;100.00;65960.22;5097263;28;20762;-69
2022/08/24 02:06:18;;;;;;;9.30;6.10;;;;;;;16.76;100.00;65953.19;5097173;28;20233;-70
2022/08/24 02:08:45;;;;;;;6.10;5.30;;;;;;;16.65;100.00;65938.31;5097258;28;20191;-69
2022/08/24 02:11:13;;;;;;;6.47;6.17;;;;;;;16.51;100.00;65927.94;5097018;28;20236;-69
2022/08/24 02:13:41;;;;;;;6.30;6.10;;;;;;;16.48;100.00;65919.34;5115701;28;20230;-69
2022/08/24 02:16:08;;;;;;;6.17;5.80;;;;;;;;;;5097308;28;20223;-69
2022/08/24 02:18:35;;;;;;;6.93;5.93;;;;;;;16.47;100.00;65920.88;5096977;28;20675;-69
2022/08/24 02:21:05;;;;;;;6.53;6.10;;;;;;;16.49;100.00;65928.88;5096986;28;20556;-69
2022/08/24 02:23:32;;;;;;;5.80;5.70;;;;;;;16.51;100.00;65930.56;5096926;28;20194;-69
2022/08/24 02:25:59;;;;;;;6.27;6.17;;;;;;;;;;5114113;28;20574;-69
2022/08/24 02:28:27;;;;;;;6.67;6.27;;;;;;;16.55;100.00;65932.41;5115112;28;20190;-69
2022/08/24 02:30:54;;;;;;;9.63;6.30;;;;;;;16.57;100.00;65934.06;5113693;28;20582;-69
2022/08/24 02:33:22;;;;;;;7.20;6.87;;;;;;;16.51;100.00;65922.72;5097010;28;20185;-69
2022/08/24 02:35:51;;;;;;;7.10;6.80;;;;;;;16.45;100.00;65916.03;5096885;28;20203;-69
2022/08/24 02:38:17;;;;;;;7.37;6.90;;;;;;;16.41;100.00;65917.34;5096610;28;20193;-69
2022/08/24 02:40:44;;;;;;;6.50;6.20;;;;;;;16.42;100.00;65915.84;5096615;28;20196;-69
2022/08/24 02:43:10;;;;;;;9.30;7.80;;;;;;;;;;5096546;28;20276;-69
2022/08/24 02:45:42;;;;;;;7.43;7.10;;;;;;;;;;5096690;28;20193;-70
2022/08/24 02:48:15;;;;;;;7.20;6.70;;;;;;;;;;5097045;28;20188;-69
2022/08/24 02:50:44;;;;;;;7.37;7.03;;;;;;;16.23;100.00;65892.63;5114501;28;20201;-69
2022/08/24 02:53:12;;;;;;;7.03;6.47;;;;;;;;;;5096414;28;20669;-69
2022/08/24 02:55:41;;;;;;;6.13;5.87;;;;;;;16.17;100.00;65885.38;5096257;28;20673;-69
2022/08/24 02:58:09;;;;;;;7.67;7.20;;;;;;;16.18;100.00;65887.06;5096558;28;20211;-69
2022/08/24 03:00:37;;;;;;;7.10;6.70;;;;;;;16.16;100.00;65884.81;5096259;28;20189;-69
2022/08/24 03:03:07;;;;;;;6.83;6.53;;;;;;;16.16;100.00;65884.28;5096202;28;20659;-69
2022/08/24 03:05:35;;;;;;;7.37;6.87;;;;;;;;;;5096171;28;20193;-69
2022/08/24 03:08:01;;;;;;;6.93;6.73;;;;;;;16.26;100.00;65898.03;5096317;28;20574;-69
2022/08/24 03:10:30;;;;;;;7.07;6.63;;;;;;;16.29;100.00;65908.66;5095878;28;20212;-69
2022/08/24 03:12:59;;;;;;;7.10;6.43;;;;;;;;;;5096050;28;20189;-69
2022/08/24 03:15:26;;;;;;;6.40;5.97;;;;;;;16.31;100.00;65900.97;5112961;28;20276;-69
2022/08/24 03:17:53;;;;;;;7.33;6.77;;;;;;;16.29;100.00;65898.19;5095938;28;20261;-69
2022/08/24 03:20:21;;;;;;;7.73;6.97;;;;;;;16.23;100.00;65897.88;5113132;28;20651;-69
2022/08/24 03:22:48;;;;;;;6.83;6.20;;;;;;;16.13;100.00;65884.09;5095819;28;20220;-69
2022/08/24 03:25:16;;;;;;;6.23;5.83;;;;;;;16.09;100.00;65874.41;5095854;28;20197;-69
2022/08/24 03:27:44;;;;;;;5.93;5.57;;;;;;;16.10;100.00;65882.81;5095969;28;20577;-69
2022/08/24 03:30:13;;;;;;;6.40;6.20;;;;;;;16.11;100.00;65879.25;5112716;28;20181;-69
2022/08/24 03:32:41;;;;;;;5.63;5.37;;;;;;;16.12;100.00;65885.59;5095713;28;20189;-69
2022/08/24 03:35:09;;;;;;;7.47;6.73;;;;;;;16.09;100.00;65877.03;5095696;28;20210;-69
2022/08/24 03:37:36;;;;;;;8.60;5.97;;;;;;;16.06;100.00;65878.91;5095615;28;20228;-69
2022/08/24 03:40:05;;;;;;;5.77;5.53;;;;;;;;;;5112605;28;20211;-69
2022/08/24 03:42:38;;;;;;;10.53;6.00;;;;;;;16.08;100.00;65880.59;5095833;28;20276;-69
2022/08/24 03:45:05;;;;;;;6.80;6.30;;;;;;;15.89;100.00;65870.47;5095601;28;20196;-69
2022/08/24 03:47:33;;;;;;;6.67;6.23;;;;;;;15.77;100.00;65841.94;5095404;28;20209;-69
2022/08/24 03:50:04;;;;;;;6.40;6.10;;;;;;;15.80;100.00;65845.28;5113735;28;20554;-69
2022/08/24 03:52:31;;;;;;;6.57;6.07;;;;;;;15.78;100.00;65843.06;5113642;28;20193;-69
2022/08/24 03:55:00;;;;;;;6.17;5.73;;;;;;;;;;5095499;28;20272;-69
2022/08/24 03:57:28;;;;;;;7.00;6.37;;;;;;;15.77;100.00;65841.38;5112730;28;20224;-69
2022/08/24 03:59:54;;;;;;;6.93;6.63;;;;;;;15.75;100.00;65836.53;5113690;28;20174;-69
2022/08/24 04:02:21;;;;;;;9.23;5.90;;;;;;;15.73;100.00;65836.94;5097490;28;20188;-69
2022/08/24 04:04:47;;;;;;;6.47;6.27;;;;;;;15.71;100.00;65834.69;5099644;28;20690;-69
2022/08/24 04:07:14;;;;;;;6.50;6.20;;;;;;;15.71;100.00;65834.69;5099450;28;20208;-69
2022/08/24 04:09:40;;;;;;;7.80;7.13;;;;;;;;;;5099507;28;20277;-69
2022/08/24 04:12:07;;;;;;;7.93;7.27;;;;;;;15.76;100.00;65838.22;5099301;28;20216;-69
2022/08/24 04:14:34;;;;;;;8.90;8.17;;;;;;;15.80;100.00;65844.72;5099376;28;20600;-69
2022/08/24 04:17:07;;;;;;;8.23;7.90;;;;;;;15.86;100.00;65854.00;5116332;28;20212;-69
2022/08/24 04:19:56;;;;;;;14.53;8.53;;;;;;;15.85;100.00;65850.84;5099618;28;20224;-69
2022/08/24 04:22:27;;;;;;;9.10;8.70;;;;;;;15.87;100.00;65855.16;5116274;28;20184;-69
2022/08/24 04:24:54;;;;;;;12.37;8.07;;;;;;;15.86;100.00;65848.78;5118129;28;20169;-69
2022/08/24 04:27:21;;;;;;;8.33;7.80;;;;;;;15.85;100.00;65852.91;5099049;28;20220;-69
2022/08/24 04:29:48;;;;;;;7.77;7.13;;;;;;;15.83;100.00;65853.84;5099149;28;20200;-69
2022/08/24 04:32:14;;;;;;;11.63;8.57;;;;;;;15.84;100.00;65851.78;5099606;28;20642;-69
2022/08/24 04:34:42;;;;;;;8.87;7.87;;;;;;;;;;5099066;28;20189;-69
2022/08/24 04:37:10;;;;;;;8.37;7.90;;;;;;;15.76;100.00;65840.81;5099316;28;20588;-69
2022/08/24 04:39:37;;;;;;;7.80;7.47;;;;;;;15.66;100.00;65835.50;5098986;28;20242;-69
2022/08/24 04:42:26;;;;;;;11.30;7.03;;;;;;;15.62;100.00;65828.41;5098938;28;20259;-69
2022/08/24 04:44:54;;;;;;;7.20;6.90;;;;;;;15.62;100.00;65825.78;5116822;28;20181;-69
2022/08/24 04:47:23;;;;;;;10.20;7.53;;;;;;;;;;5098825;28;20678;-69
2022/08/24 04:49:49;;;;;;;13.90;7.90;;;;;;;;;;5116033;28;20226;-69
2022/08/24 04:52:16;;;;;;;8.87;7.50;;;;;;;15.66;100.00;65835.50;5098780;28;20205;-69
2022/08/24 04:54:42;;;;;;;8.47;8.00;;;;;;;15.67;100.00;65836.03;5098662;28;20219;-69
2022/08/24 04:57:14;;;;;;;8.10;7.90;;;;;;;15.66;100.00;65832.88;5115723;28;20303;-69
2022/08/24 04:59:45;;;;;;;11.40;7.70;;;;;;;15.67;100.00;65831.38;5115427;28;20177;-69
2022/08/24 05:02:12;;;;;;;7.40;7.10;;;;;;;15.69;100.00;65833.59;5098353;28;20193;-69
2022/08/24 05:04:38;;;;;;;8.37;7.73;;;;;;;15.73;100.00;65837.50;5098326;28;20185;-69
2022/08/24 05:07:06;;;;;;;10.97;8.90;;;;;;;15.77;100.00;65838.75;5115370;28;20262;-69
2022/08/24 05:09:32;;;;;;;8.37;7.77;;;;;;;15.81;100.00;65851.63;5115388;28;20193;-69
2022/08/24 05:12:00;;;;;;;7.83;7.30;;;;;;;;;;5098167;28;20286;-69
2022/08/24 05:14:32;;;;;;;8.07;7.83;;;;;;;15.85;100.00;65847.66;5115505;28;20189;-69
2022/08/24 05:16:59;;;;;;;7.23;6.60;;;;;;;15.83;100.00;65848.06;5116684;28;20205;-69
2022/08/24 05:19:29;;;;;;;8.43;7.87;;;;;;;15.84;100.00;65846.56;5115157;28;20196;-69
2022/08/24 05:21:55;;;;;;;8.33;8.03;;;;;;;15.89;100.00;65854.75;5116678;28;20184;-69
2022/08/24 05:24:22;;;;;;;8.47;7.70;;;;;;;;;;5098528;28;20189;-69
2022/08/24 05:26:50;;;;;;;8.37;7.90;;;;;;;16.01;100.00;65870.19;5097917;28;20213;-69
2022/08/24 05:29:19;;;;;;;8.30;7.90;;;;;;;16.03;100.00;65867.72;5098254;28;20189;-69
2022/08/24 05:31:48;;;;;;;9.00;8.17;;;;;;;16.05;100.00;65864.72;5098463;28;20630;-69
2022/08/24 05:34:15;;;;;;;8.57;7.73;;;;;;;16.14;100.00;65882.59;5097862;28;20186;-69
2022/08/24 05:36:42;;;;;;;7.93;7.63;;;;;;;16.15;100.00;65881.09;5114667;28;20231;-69
2022/08/24 05:39:17;;;;;;;8.37;7.63;;;;;;;16.18;100.00;65886.50;5098594;28;20542;-69
2022/08/24 05:41:50;;;;;;;8.30;7.53;;;;;;;;;;5098404;28;20273;-69
2022/08/24 05:44:29;;;;;;;9.93;9.27;;;;;;;16.31;100.00;65897.81;5098595;28;20230;-69
2022/08/24 05:47:00;;;;;;;9.30;8.80;;;;;;;16.36;100.00;65903.94;5114566;28;20294;-69
2022/08/24 05:49:27;;;;;;;8.07;7.87;;;;;;;16.40;100.00;65910.44;5097505;28;20219;-69
2022/08/24 05:51:53;;;;;;;8.83;8.00;;;;;;;16.44;100.00;65912.28;5116040;28;20200;-69
2022/08/24 05:54:21;;;;;;;10.80;9.20;;;;;;;16.47;100.00;65915.63;5097452;28;20195;-69
2022/08/24 05:57:03;;;;;;;8.57;8.23;;;;;;;16.51;100.00;65922.72;5097497;28;20687;-69
2022/08/24 05:59:33;;;;;;;8.40;7.60;;;;;;;16.53;100.00;65924.94;5114404;28;20242;-69
2022/08/24 06:02:07;;;;;;;11.27;8.13;;;;;;;16.56;100.00;65930.88;5114525;28;20216;-69
2022/08/24 06:04:36;;;;;;;8.57;7.97;;;;;;;16.59;100.00;65931.06;5114467;28;20250;-69
2022/08/24 06:07:04;;;;;;;9.40;8.50;;;;;;;;;;5113730;28;20247;-69
2022/08/24 06:09:32;;;;;;;10.93;9.57;;;;;;;16.69;100.00;65939.56;5097174;28;20651;-69
2022/08/24 06:11:59;;;;;;;11.73;10.67;;;;;;;;;;5096926;28;20217;-69
2022/08/24 06:14:25;;;;;;;12.63;9.67;;;;;;;16.68;100.00;65938.47;5097123;28;20193;-69
2022/08/24 06:16:57;;;;;;;12.27;9.30;;;;;;;16.66;100.00;65936.81;5097818;28;20209;-69
2022/08/24 06:19:25;;;;;;;9.93;9.03;;;;;;;16.68;100.00;65938.47;5097020;28;20197;-69
2022/08/24 06:21:53;;;;;;;16.30;9.73;;;;;;;;;;5114442;28;20182;-69
2022/08/24 06:27:20;;;;;;;18.40;10.10;;;;;;;;;;5096751;28;20270;-69
2022/08/24 06:29:51;;;;;;;14.07;10.57;;;;;;;;;;5096882;28;20188;-69
2022/08/24 06:32:46;;;;;;;11.00;10.27;;;;;;;17.02;100.00;65976.38;5096913;28;20571;-69
2022/08/24 06:35:27;;;;;;;12.00;11.07;;;;;;;;;;5096707;28;20192;-69
2022/08/24 06:37:55;;;;;;;10.70;10.00;;;;;;;17.34;100.00;66010.94;5096737;28;20204;-69
2022/08/24 06:40:24;;;;;;;17.53;10.87;;;;;;;17.40;100.00;66011.81;5096555;28;20213;-69
2022/08/24 06:42:51;;;;;;;14.63;11.07;;;;;;;17.49;100.00;66027.09;5096578;28;20192;-69
2022/08/24 06:45:31;;;;;;;11.37;10.33;;;;;;;17.66;100.00;66048.16;5096534;28;20208;-69
2022/08/24 06:47:59;;;;;;;19.87;10.40;;;;;;;17.77;100.00;66066.22;5096360;28;20217;-69
2022/08/24 06:50:26;;;;;;;13.47;10.63;;;;;;;17.90;100.00;66074.94;5096430;28;20193;-69
2022/08/24 06:52:54;;;;;;;15.23;10.80;;;;;;;;;;5096367;28;20292;-69
2022/08/24 06:55:23;;;;;;;20.07;11.13;;;;;;;18.21;100.00;66108.41;5096406;28;20185;-69
2022/08/24 06:57:50;;;;;;;14.73;10.80;;;;;;;18.37;100.00;66123.63;5096170;28;20740;-69
2022/08/24 07:00:18;;;;;;;12.07;10.53;;;;;;;;;;5096226;28;20223;-69
2022/08/24 07:02:45;;;;;;;13.73;10.33;;;;;;;;;;5096135;28;20181;-69
2022/08/24 07:05:12;;;;;;;10.80;10.10;;;;;;;;;;5096164;28;20186;-69
2022/08/24 07:08:05;;;;;;;11.93;10.83;;;;;;;19.03;96.65;66196.22;5114234;28;20778;-69
2022/08/24 07:10:33;;;;;;;17.57;9.73;;;;;;;;;;5095869;28;20238;-69
2022/08/24 07:13:00;;;;;;;18.67;10.30;;;;;;;19.31;94.27;66226.38;5114789;28;20651;-69
2022/08/24 07:15:26;;;;;;;14.47;8.80;;;;;;;19.44;93.20;66244.09;5114718;28;20189;-69
2022/08/24 07:18:08;;;;;;;9.67;8.87;;;;;;;19.61;92.37;66261.97;5096014;28;20189;-69
2022/08/24 07:20:40;;;;;;;12.30;9.10;;;;;;;19.73;91.22;66272.75;5096457;28;20276;-69
2022/08/24 07:23:14;;;;;;;10.73;9.20;;;;;;;;;;5095831;28;20289;-69
2022/08/24 07:25:40;;;;;;;14.07;9.90;;;;;;;;;;5095705;28;20228;-70
2022/08/24 07:28:13;;;;;;;9.97;9.00;;;;;;;20.03;89.13;66314.19;5096574;28;20185;-69
2022/08/24 07:30:42;;;;;;;12.77;8.77;;;;;;;20.14;88.01;66320.09;5095732;28;20280;-69
2022/08/24 07:33:10;;;;;;;8.00;7.50;;;;;;;;;;5095955;28;20215;-69
2022/08/24 07:35:38;;;;;;;8.23;7.43;;;;;;;20.31;87.38;66328.56;5095564;28;20226;-69
2022/08/24 07:38:06;;;;;;;8.30;7.80;;;;;;;20.47;86.49;66362.28;5095781;28;20566;-69
2022/08/24 07:40:34;;;;;;;9.43;6.77;;;;;;;20.58;86.05;66366.13;5095586;28;20238;-69
2022/08/24 07:43:20;;;;;;;10.47;7.17;;;;;;;20.74;85.88;66383.44;5114020;28;20226;-69
2022/08/24 07:45:48;;;;;;;8.80;6.60;;;;;;;;;;5095678;28;20192;-69
2022/08/24 07:48:14;;;;;;;16.43;7.17;;;;;;;;;;5095523;28;20189;-69
2022/08/24 07:50:44;;;;;;;17.60;6.63;;;;;;;;;;5096012;28;20185;-69
2022/08/24 07:53:11;;;;;;;13.20;6.90;;;;;;;;;;5095200;28;20216;-69
2022/08/24 07:55:52;;;;;;;6.87;6.10;;;;;;;;;;5095696;28;20237;-69
2022/08/24 07:58:18;;;;;;;15.23;6.53;;;;;;;;;;5096112;28;20234;-69
2022/08/24 08:00:46;;;;;;;6.93;6.43;;;;;;;;;;5096004;28;20235;-69
2022/08/24 08:03:13;;;;;;;12.07;6.00;;;;;;;21.56;76.39;66484.06;5095296;28;20272;-69
2022/08/24 08:05:40;;;;;;;5.90;5.70;;;;;;;;;;5095111;28;20197;-70
2022/08/24 08:08:06;;;;;;;10.27;6.27;;;;;;;21.62;75.71;66480.78;5112231;28;20216;-69
2022/08/24 08:10:37;;;;;;;5.60;5.30;;;;;;;;;;5095414;28;20225;-69
2022/08/24 08:13:05;;;;;;;7.73;5.73;;;;;;;;;;5095128;28;20219;-69
2022/08/24 08:15:32;;;;;;;4.90;4.77;;;;;;;;;;5095140;28;20189;-69
2022/08/24 08:18:03;;;;;;;5.07;4.87;;;;;;;21.84;72.06;66506.94;5095063;28;20186;-69
2022/08/24 08:20:33;;;;;;;5.80;5.20;;;;;;;21.97;70.63;66519.41;5112213;28;20196;-69
2022/08/24 08:25:58;;;;;;;9.90;4.80;;;;;;;22.19;70.26;66545.56;5113682;28;20236;-69
2022/08/24 08:28:38;;;;;;;5.03;4.93;;;;;;;22.32;69.79;66556.94;5112728;28;20196;-69
2022/08/24 08:31:05;;;;;;;5.43;5.23;;;;;;;;;;5112081;28;20193;-69
2022/08/24 08:33:34;;;;;;;9.13;5.47;;;;;;;;;;5095582;28;20278;-69
2022/08/24 08:36:04;;;;;;;5.63;5.37;;;;;;;;;;5095044;28;20698;-69
2022/08/24 08:38:31;;;;;;;8.33;5.07;;;;;;;;;;5095092;28;20194;-69
2022/08/24 08:41:20;;;;;;;5.60;5.10;;;;;;;22.98;68.86;66629.75;5095097;28;20613;-69
2022/08/24 08:44:18;;;;;;;4.85;4.50;;;;;;;23.17;68.63;66653.13;5113279;28;20199;-69
2022/08/24 08:47:02;;;;;;;7.75;6.00;;;;;;;23.36;67.44;66671.78;5094934;28;20224;-69
2022/08/24 08:49:32;;;;;;;5.28;4.80;;;;;;;;;;5098953;28;20216;-69
2022/08/24 08:52:32;;;;;;;5.03;4.75;;;;;;;23.63;66.17;66701.50;5098747;28;20209;-69
2022/08/24 08:55:04;;;;;;;10.85;5.82;;;;;;;23.86;64.41;66721.41;5098678;28;20724;-69
2022/08/24 08:57:47;;;;;;;5.07;4.88;;;;;;;;;;5115625;28;20213;-69
2022/08/24 09:00:21;;;;;;;5.10;4.63;;;;;;;23.98;63.89;66739.59;5117197;28;20165;-69
2022/08/24 09:03:10;;;;;;;5.13;4.65;;;;;;;;;;5115554;28;20268;-69
2022/08/24 09:06:05;;;;;;;8.23;5.18;;;;;;;;;;5098260;28;20227;-70
2022/08/24 09:08:41;;;;;;;4.20;3.72;;;;;;;24.19;63.31;66767.91;5098374;28;20203;-69
2022/08/24 09:11:36;;;;;;;3.80;3.53;;;;;;;;;;5098447;28;20196;-70
2022/08/24 09:14:10;;;;;;;5.47;4.15;;;;;;;;;;5099825;28;20224;-69
2022/08/24 09:16:50;;;;;;;4.75;4.32;;;;;;;;;;5098632;28;20299;-70
2022/08/24 09:19:42;;;;;;;4.25;3.83;;;;;;;;;;5098182;28;20667;-69
2022/08/24 09:22:19;;;;;;;2.88;2.85;;;;;;;;;;5098839;28;20186;-69
2022/08/24 09:24:45;;;;;;;6.75;2.70;;;;;;;;;;5098054;28;20231;-69
2022/08/24 09:27:47;;;;;;;2.95;2.88;;;;;;;;;;5098371;28;20221;-69
2022/08/24 09:30:19;;;;;;;4.35;2.53;;;;;;;;;;5116609;28;20181;-69
2022/08/24 09:32:45;;;;;;;3.22;2.13;;;;;;;;;;5116035;28;20223;-69
2022/08/24 09:35:29;;;;;;;2.50;2.40;;;;;;;25.82;57.19;66942.22;5116319;28;20230;-69
2022/08/24 09:38:06;;;;;;;1.60;1.55;;;;;;;;;;5116134;28;20262;-69
2022/08/24 09:40:50;;;;;;;1.90;1.90;;;;;;;;;;5116409;28;20225;-69
2022/08/24 09:43:54;;;;;;;2.47;2.20;;;;;;;25.85;56.84;66948.78;5116305;28;20161;-69
2022/08/24 09:46:57;;;;;;;3.03;1.83;;;;;;;25.80;57.22;66940.53;5116445;28;20208;-70
2022/08/24 09:49:48;;;;;;;3.70;2.15;;;;;;;25.89;56.60;66944.75;5116297;28;20230;-70
2022/08/24 09:52:33;;;;;;;1.92;1.83;;;;;;;;;;5116018;28;20193;-69
2022/08/24 09:55:09;;;;;;;1.77;1.67;;;;;;;26.10;55.23;66973.66;5116511;28;20205;-69
2022/08/24 09:57:59;;;;;;;2.85;2.65;;;;;;;26.09;56.37;66974.63;5115795;28;20201;-69
2022/08/24 10:00:34;;;;;;;5.32;3.00;;;;;;;;;;5115202;28;20170;-70
2022/08/24 10:03:06;;;;;;;3.22;1.95;;;;;;;;;;5115979;28;20170;-69
2022/08/24 10:05:46;;;;;;;2.70;2.50;;;;;;;25.96;57.93;66957.94;5115648;28;20227;-69
2022/08/24 10:08:27;;;;;;;2.95;2.85;;;;;;;26.05;57.25;66968.59;5115633;28;20234;-69
2022/08/24 10:11:21;;;;;;;3.00;2.75;;;;;;;26.14;57.43;66980.78;5115603;28;20195;-70
2022/08/24 10:14:01;;;;;;;2.63;1.98;;;;;;;26.24;56.84;66988.81;5115383;28;20219;-70
2022/08/24 10:16:37;;;;;;;3.70;2.42;;;;;;;;;;5115363;28;20254;-69
2022/08/24 10:19:22;;;;;;;2.45;2.45;;;;;;;;;;5114694;28;20173;-70
2022/08/24 10:22:09;;;;;;;3.15;2.20;;;;;;;;;;5115304;28;20173;-70
2022/08/24 10:24:54;;;;;;;2.85;2.60;;;;;;;26.56;54.92;67026.88;5115921;28;20223;-70
2022/08/24 10:27:35;;;;;;;2.40;2.28;;;;;;;26.61;55.62;67030.41;5115258;28;20197;-70
2022/08/24 10:30:02;;;;;;;1.98;1.98;;;;;;;;;;5115451;28;20540;-70
2022/08/24 10:32:47;;;;;;;8.85;2.45;;;;;;;26.67;53.75;67036.59;5115058;28;20246;-69
2022/08/24 10:35:20;;;;;;;21.52;2.30;;;;;;;;;;5115425;28;20193;-69
2022/08/24 10:41:16;;;;;;;9.07;2.20;;;;;;;;;;5115051;28;20230;-70
2022/08/24 10:44:15;;;;;;;6.43;2.03;;;;;;;26.87;52.19;67061.72;5114957;28;20185;-70
2022/08/24 10:46:55;;;;;;;4.10;2.08;;;;;;;26.82;52.25;67052.88;5114982;28;20263;-71
2022/08/24 10:49:33;;;;;;;1.77;1.77;;;;;;;;;;5115032;28;20263;-70
2022/08/24 10:52:18;;;;;;;1.80;1.80;;;;;;;;;;5114906;28;20172;-70
2022/08/24 10:54:45;;;;;;;2.92;1.90;;;;;;;;;;5114542;28;20230;-70
2022/08/24 10:57:30;;;;;;;1.80;1.80;;;;;;;27.06;51.11;67079.88;5114519;28;20617;-70
2022/08/24 11:00:02;;;;;;;2.10;1.88;;;;;;;;;;5114778;28;20200;-69
2022/08/24 11:02:35;;;;;;;2.63;1.70;;;;;;;27.38;50.31;67115.28;5114538;28;20184;-70
2022/08/24 11:05:16;;;;;;;1.67;1.58;;;;;;;27.49;49.06;67126.53;5114513;28;20689;-70
2022/08/24 11:08:18;;;;;;;2.88;1.70;;;;;;;27.58;49.12;67139.88;5114787;28;20212;-69
2022/08/24 11:11:01;;;;;;;3.80;1.70;;;;;;;27.72;47.98;67151.84;5100821;28;20258;-70
2022/08/24 11:13:27;;;;;;;4.85;1.77;;;;;;;27.81;48.50;67161.97;5114783;28;20235;-70
2022/08/24 11:15:55;;;;;;;2.60;2.10;;;;;;;;;;5114229;28;20189;-70
2022/08/24 11:18:22;;;;;;;1.80;1.80;;;;;;;27.76;48.50;67156.34;5114495;28;20528;-69
2022/08/24 11:20:52;;;;;;;3.80;1.90;;;;;;;27.62;48.61;67135.81;5114130;28;20181;-69
2022/08/24 11:23:22;;;;;;;2.10;2.10;;;;;;;27.57;48.00;67130.72;5114127;28;20189;-70
2022/08/24 11:26:20;;;;;;;1.90;1.90;;;;;;;27.40;48.13;67111.63;5114569;28;20607;-70
2022/08/24 11:28:56;;;;;;;2.13;2.00;;;;;;;27.34;48.04;67110.22;5114107;28;20166;-70
2022/08/24 11:31:31;;;;;;;1.48;1.48;;;;;;;;;;5114357;28;20222;-70
2022/08/24 11:34:33;;;;;;;1.88;1.88;;;;;;;27.24;48.95;67102.22;5114383;28;20683;-69
2022/08/24 11:36:59;;;;;;;1.80;1.70;;;;;;;;;;5113054;28;20228;-70
2022/08/24 11:39:29;;;;;;;1.88;1.88;;;;;;;;;;5114483;28;20176;-70
2022/08/24 11:42:13;;;;;;;1.75;1.75;;;;;;;27.41;48.19;67123.41;5114158;28;20231;-70
2022/08/24 11:44:48;;;;;;;1.70;1.60;;;;;;;27.40;48.30;67112.19;5114089;28;20181;-70
2022/08/24 11:47:15;;;;;;;1.65;1.65;;;;;;;;;;5113981;28;20228;-70
2022/08/24 11:50:03;;;;;;;1.80;1.80;;;;;;;27.47;46.98;67124.84;5095290;28;20181;-69
2022/08/24 11:52:55;;;;;;;1.77;1.60;;;;;;;27.48;48.00;67125.97;5114191;28;20225;-70
2022/08/24 11:55:21;;;;;;;2.08;1.98;;;;;;;;;;5113878;28;20181;-70
2022/08/24 11:58:11;;;;;;;1.92;1.75;;;;;;;27.70;46.71;67150.72;5113628;28;20227;-70
2022/08/24 12:01:07;;;;;;;3.83;2.17;;;;;;;27.69;46.01;67144.25;5114261;28;20174;-70
2022/08/24 12:03:46;;;;;;;1.98;1.73;;;;;;;;;;5114199;28;20169;-70
2022/08/24 12:06:54;;;;;;;1.88;1.88;;;;;;;27.68;47.43;67148.47;5114167;28;20205;-71
2022/08/24 12:09:31;;;;;;;1.73;1.60;;;;;;;27.76;47.63;67159.00;5114127;28;20189;-71
2022/08/24 12:12:34;;;;;;;1.80;1.80;;;;;;;27.83;47.03;67164.22;5114331;28;20638;-70
2022/08/24 12:15:00;;;;;;;2.00;1.90;;;;;;;;;;5100857;28;20197;-70
2022/08/24 12:17:35;;;;;;;1.67;1.67;;;;;;;28.13;44.94;67192.63;5113746;28;20554;-70
2022/08/24 12:20:23;;;;;;;2.35;1.58;;;;;;;28.12;45.21;67199.50;5114417;28;20605;-70
2022/08/24 12:22:53;;;;;;;3.38;2.25;;;;;;;28.04;44.90;67189.94;5114990;28;20195;-70
2022/08/24 12:28:06;;;;;;;2.25;2.13;;;;;;;28.03;45.99;67186.16;5118029;28;20169;-70
2022/08/24 12:30:33;;;;;;;1.90;1.90;;;;;;;28.02;44.81;67185.03;5118149;28;20169;-70
2022/08/24 12:33:05;;;;;;;5.22;2.08;;;;;;;28.08;44.62;67186.44;5117473;28;20197;-70
2022/08/24 12:35:41;;;;;;;3.92;2.10;;;;;;;28.27;43.52;67213.13;5118051;28;20184;-70
2022/08/24 12:38:30;;;;;;;1.60;1.60;;;;;;;28.21;43.54;67206.94;5117616;28;20627;-70
2022/08/24 12:41:30;;;;;;;6.32;2.25;;;;;;;28.29;43.06;67217.50;5117603;28;20624;-70
2022/08/24 12:44:11;;;;;;;1.90;1.90;;;;;;;;;;5103116;28;20624;-70
2022/08/24 12:46:38;;;;;;;3.40;1.98;;;;;;;;;;5117531;28;20695;-70
2022/08/24 12:49:11;;;;;;;2.45;2.28;;;;;;;28.23;44.13;67209.22;5117067;28;20555;-70
2022/08/24 12:51:49;;;;;;;1.83;1.73;;;;;;;28.27;43.27;67213.13;5117286;28;20619;-70
2022/08/24 12:54:26;;;;;;;2.05;1.95;;;;;;;28.40;43.22;67227.78;5116868;28;20197;-69
2022/08/24 12:57:12;;;;;;;2.30;2.20;;;;;;;;;;5099183;28;20204;-69